Time;durP1;ratioP1;P1;durP2;ratioP2;P2;SDS_P1;SDS_P2;PMS_P1;PMS_P2;Temp;Humidity;BMP_temperature;BMP_pressure;BME280_temperature;BME280_humidity;BME280_pressure;Samples;Min_cycle;Max_cycle;Signal;HPM_P1;HPM_P2
2021/08/04 00:01:09;;;;;;;7.30;2.90;;;15.70;44.80;;;;;;5097829;27;20495;-86
2021/08/04 00:03:58;;;;;;;4.47;2.38;;;15.80;45.50;;;;;;5095929;27;20043;-85
2021/08/04 00:06:55;;;;;;;5.00;2.70;;;15.80;43.00;;;;;;5095046;27;20035;-87
2021/08/04 00:09:45;;;;;;;4.72;2.50;;;15.80;44.40;;;;;;5112181;27;20043;-87
2021/08/04 00:12:34;;;;;;;3.95;2.38;;;15.80;42.20;;;;;;5099697;27;20051;-86
2021/08/04 00:15:23;;;;;;;3.60;2.30;;;15.70;40.70;;;;;;5096466;27;20050;-86
2021/08/04 00:18:12;;;;;;;4.95;2.70;;;15.80;41.80;;;;;;5107424;27;20051;-87
2021/08/04 00:21:00;;;;;;;6.03;2.88;;;15.80;42.20;;;;;;5095350;27;20499;-87
2021/08/04 00:23:53;;;;;;;4.22;2.35;;;15.70;44.30;;;;;;5101044;27;20055;-86
2021/08/04 00:26:43;;;;;;;3.47;2.33;;;15.70;43.50;;;;;;5108034;27;20043;-87
2021/08/04 00:29:32;;;;;;;3.05;2.10;;;15.70;44.20;;;;;;5106036;27;20442;-87
2021/08/04 00:32:29;;;;;;;;;;;15.60;42.00;;;;;;5100230;27;20387;-87
2021/08/04 00:35:18;;;;;;;4.93;2.20;;;15.70;44.80;;;;;;5102655;27;20200;-86
2021/08/04 00:38:10;;;;;;;3.17;2.15;;;15.70;45.00;;;;;;5096951;27;20130;-87
2021/08/04 00:40:59;;;;;;;3.78;2.05;;;15.70;44.80;;;;;;5097195;27;20253;-87
2021/08/04 00:43:50;;;;;;;4.18;1.90;;;15.70;45.00;;;;;;5113583;27;20035;-88
2021/08/04 00:46:43;;;;;;;4.65;2.63;;;15.70;46.00;;;;;;5096223;27;20043;-86
2021/08/04 00:49:33;;;;;;;4.60;2.28;;;15.50;45.40;;;;;;5099027;27;20038;-86
2021/08/04 00:52:22;;;;;;;4.55;2.40;;;15.60;46.30;;;;;;5118478;27;20043;-87
2021/08/04 00:55:11;;;;;;;6.25;2.38;;;15.60;46.20;;;;;;5101641;27;20547;-88
2021/08/04 00:58:00;;;;;;;4.10;2.20;;;15.60;46.20;;;;;;5098051;27;20038;-87
2021/08/04 01:01:00;;;;;;;3.13;2.35;;;15.50;45.30;;;;;;5102645;27;20058;-87
2021/08/04 01:03:53;;;;;;;5.13;2.40;;;15.40;44.00;;;;;;5116425;27;20046;-87
2021/08/04 01:06:48;;;;;;;8.65;2.10;;;15.40;46.10;;;;;;5104388;27;20047;-85
2021/08/04 01:09:42;;;;;;;7.32;1.92;;;15.40;47.60;;;;;;5119679;27;20070;-86
2021/08/04 01:12:41;;;;;;;7.00;2.60;;;15.30;45.90;;;;;;5111484;27;20044;-85
2021/08/04 01:15:33;;;;;;;3.20;2.28;;;15.30;45.30;;;;;;5098587;27;20097;-86
2021/08/04 01:18:29;;;;;;;2.25;2.00;;;15.30;45.80;;;;;;5114129;27;20040;-86
2021/08/04 01:21:24;;;;;;;6.53;2.38;;;15.30;45.70;;;;;;5112866;27;20254;-86
2021/08/04 01:24:20;;;;;;;2.85;1.95;;;15.40;46.00;;;;;;5113513;27;20048;-86
2021/08/04 01:27:14;;;;;;;3.83;1.98;;;15.40;44.70;;;;;;5094101;27;20632;-86
2021/08/04 01:30:04;;;;;;;5.30;1.73;;;15.40;45.80;;;;;;5098171;27;20434;-87
2021/08/04 01:32:52;;;;;;;5.68;2.47;;;15.40;45.60;;;;;;5098459;27;20072;-86
2021/08/04 01:35:42;;;;;;;8.40;2.85;;;15.40;45.40;;;;;;5112399;27;20536;-85
2021/08/04 01:38:32;;;;;;;6.57;2.00;;;15.40;43.60;;;;;;5102969;27;20039;-86
2021/08/04 01:41:21;;;;;;;2.38;1.90;;;15.40;42.90;;;;;;5099270;27;20052;-87
2021/08/04 01:44:13;;;;;;;3.72;1.98;;;15.40;44.00;;;;;;5096299;27;20055;-86
2021/08/04 01:47:02;;;;;;;2.55;1.70;;;15.40;43.10;;;;;;5094126;27;20405;-86
2021/08/04 01:49:51;;;;;;;5.60;2.40;;;15.40;42.00;;;;;;5097630;27;20046;-86
2021/08/04 01:52:39;;;;;;;3.63;2.10;;;15.40;44.10;;;;;;5112845;27;20036;-86
2021/08/04 01:55:28;;;;;;;2.97;2.00;;;15.40;43.30;;;;;;5100528;27;20082;-87
2021/08/04 01:58:17;;;;;;;3.03;2.10;;;15.50;42.70;;;;;;5098850;27;20409;-86
2021/08/04 02:01:07;;;;;;;4.60;2.00;;;15.40;41.80;;;;;;5101598;27;20059;-86
2021/08/04 02:03:56;;;;;;;9.48;2.00;;;15.50;42.20;;;;;;5103070;27;20039;-86
2021/08/04 02:06:51;;;;;;;2.75;2.00;;;15.40;41.10;;;;;;5101446;27;20054;-87
2021/08/04 02:09:47;;;;;;;3.72;2.10;;;15.50;41.80;;;;;;5102456;27;20095;-86
2021/08/04 02:12:51;;;;;;;4.57;2.60;;;15.40;40.10;;;;;;5116430;27;20047;-87
2021/08/04 02:15:42;;;;;;;5.00;1.88;;;15.40;39.40;;;;;;5112264;27;20498;-86
2021/08/04 02:18:33;;;;;;;3.80;1.90;;;15.40;40.90;;;;;;5104153;27;20044;-85
2021/08/04 02:21:25;;;;;;;2.78;2.05;;;15.40;43.30;;;;;;5101685;27;20043;-86
2021/08/04 02:24:18;;;;;;;4.43;1.90;;;15.40;40.90;;;;;;5097173;27;20043;-87
2021/08/04 02:27:12;;;;;;;4.50;2.00;;;15.30;41.70;;;;;;5106874;27;20517;-86
2021/08/04 02:30:01;;;;;;;4.38;2.20;;;15.30;41.80;;;;;;5106575;27;20119;-87
2021/08/04 02:32:52;;;;;;;2.58;2.05;;;15.30;44.50;;;;;;5098481;27;20521;-89
2021/08/04 02:35:42;;;;;;;2.65;2.08;;;15.30;45.80;;;;;;5097071;27;20048;-88
2021/08/04 02:38:35;;;;;;;3.40;2.63;;;15.20;45.70;;;;;;5100627;27;20091;-88
2021/08/04 02:41:24;;;;;;;4.18;1.98;;;15.20;44.50;;;;;;5107057;27;20043;-88
2021/08/04 02:44:15;;;;;;;4.70;2.00;;;15.10;42.80;;;;;;5101190;27;20057;-87
2021/08/04 02:47:04;;;;;;;4.95;2.15;;;15.10;43.70;;;;;;5100727;27;20046;-89
2021/08/04 02:49:54;;;;;;;4.13;2.15;;;15.20;43.10;;;;;;5111736;27;20040;-89
2021/08/04 02:52:49;;;;;;;4.90;2.45;;;15.10;41.60;;;;;;5103094;27;20092;-89
2021/08/04 02:55:37;;;;;;;4.78;2.65;;;15.20;41.70;;;;;;5098757;27;20068;-90
2021/08/04 02:58:35;;;;;;;3.25;2.33;;;15.20;40.60;;;;;;5100196;27;20054;-90
2021/08/04 03:01:30;;;;;;;4.53;2.10;;;15.20;40.40;;;;;;5102222;27;20055;-89
2021/08/04 03:04:21;;;;;;;3.07;2.17;;;15.10;38.70;;;;;;5097434;27;20066;-89
2021/08/04 03:07:10;;;;;;;4.82;2.42;;;15.20;40.10;;;;;;5114474;27;20280;-87
2021/08/04 03:10:05;;;;;;;3.35;1.88;;;15.10;38.60;;;;;;5098642;27;20126;-88
2021/08/04 03:12:54;;;;;;;5.10;2.20;;;15.20;38.10;;;;;;5099315;27;20038;-88
2021/08/04 03:15:43;;;;;;;4.88;2.05;;;15.00;38.20;;;;;;5097893;27;20133;-88
2021/08/04 03:18:32;;;;;;;3.08;2.08;;;15.00;38.70;;;;;;5096280;27;20047;-88
2021/08/04 03:21:20;;;;;;;2.63;2.20;;;14.90;40.40;;;;;;5113480;27;20059;-90
2021/08/04 03:24:12;;;;;;;3.33;2.20;;;14.90;37.50;;;;;;5100119;27;20039;-90
2021/08/04 03:27:02;;;;;;;3.72;1.95;;;15.00;36.40;;;;;;5112284;27;20511;-90
2021/08/04 03:29:51;;;;;;;2.75;2.05;;;15.00;35.40;;;;;;5096500;27;20123;-89
2021/08/04 03:32:39;;;;;;;3.05;1.92;;;15.00;35.00;;;;;;5098282;27;20040;-89
2021/08/04 03:35:28;;;;;;;4.05;2.25;;;15.00;34.00;;;;;;5096219;27;20055;-90
2021/08/04 03:38:17;;;;;;;2.65;2.00;;;15.10;34.60;;;;;;5097406;27;20051;-91
2021/08/04 03:41:06;;;;;;;3.25;1.92;;;15.10;35.70;;;;;;5100358;27;20098;-91
2021/08/04 03:43:56;;;;;;;5.63;2.38;;;15.10;35.50;;;;;;5097859;27;20134;-91
2021/08/04 03:46:46;;;;;;;4.38;2.33;;;15.10;35.40;;;;;;5102443;27;20104;-88
2021/08/04 03:49:35;;;;;;;7.30;2.33;;;15.20;36.60;;;;;;5101342;27;20421;-89
2021/08/04 03:52:24;;;;;;;4.35;2.38;;;15.10;36.20;;;;;;5102938;27;20131;-89
2021/08/04 03:55:13;;;;;;;5.68;2.45;;;15.00;35.20;;;;;;5095822;27;20158;-90
2021/08/04 03:58:01;;;;;;;4.97;3.13;;;15.00;34.60;;;;;;5100443;27;20103;-90
2021/08/04 04:00:51;;;;;;;2.88;1.95;;;15.00;35.50;;;;;;5099731;27;20046;-91
2021/08/04 04:03:40;;;;;;;4.85;2.47;;;15.00;37.20;;;;;;5103024;27;20055;-90
2021/08/04 04:06:29;;;;;;;4.60;2.70;;;14.90;35.60;;;;;;5098354;27;20180;-90
2021/08/04 04:09:18;;;;;;;5.57;2.22;;;14.90;34.90;;;;;;5098055;27;20413;-90
2021/08/04 04:12:07;;;;;;;4.65;2.22;;;14.90;32.80;;;;;;5099694;27;20562;-91
2021/08/04 04:14:56;;;;;;;2.72;1.98;;;14.90;31.60;;;;;;5098534;27;20347;-90
2021/08/04 04:17:45;;;;;;;3.80;2.33;;;15.00;36.10;;;;;;5096694;27;20243;-90
2021/08/04 04:20:34;;;;;;;7.32;2.28;;;15.00;35.70;;;;;;5097279;27;20054;-90
2021/08/04 04:23:25;;;;;;;3.53;2.08;;;14.90;32.80;;;;;;5114121;27;20493;-90
2021/08/04 04:26:13;;;;;;;4.10;2.10;;;15.00;33.80;;;;;;5092668;27;20054;-89
2021/08/04 04:29:02;;;;;;;5.63;2.40;;;14.90;32.80;;;;;;5101893;27;20049;-89
2021/08/04 04:31:52;;;;;;;5.72;2.33;;;14.90;33.40;;;;;;5098023;27;20498;-89
2021/08/04 04:34:42;;;;;;;2.47;2.00;;;14.80;33.90;;;;;;5096938;27;20459;-89
2021/08/04 04:37:31;;;;;;;6.05;2.38;;;14.90;33.30;;;;;;5098493;27;20114;-90
2021/08/04 04:40:19;;;;;;;6.28;2.53;;;15.00;32.90;;;;;;5096864;27;20043;-89
2021/08/04 04:43:08;;;;;;;3.38;2.40;;;15.00;30.10;;;;;;5097778;27;20047;-90
2021/08/04 04:45:56;;;;;;;4.28;2.33;;;15.00;28.40;;;;;;5096187;27;20062;-91
2021/08/04 04:48:45;;;;;;;3.97;2.40;;;15.20;27.40;;;;;;5093659;27;20057;-89
2021/08/04 04:51:35;;;;;;;5.65;2.00;;;15.20;25.60;;;;;;5094723;27;20031;-90
2021/08/04 04:54:23;;;;;;;4.97;2.03;;;15.20;22.10;;;;;;5099716;27;20173;-90
2021/08/04 04:57:12;;;;;;;4.25;2.60;;;15.40;22.70;;;;;;5101776;27;20176;-90
2021/08/04 05:00:01;;;;;;;6.10;2.03;;;15.70;21.30;;;;;;5108015;27;20844;-89
2021/08/04 05:02:51;;;;;;;3.55;1.67;;;16.00;18.00;;;;;;5092532;27;20051;-90
2021/08/04 05:05:48;;;;;;;;;;;15.90;18.50;;;;;;5096890;27;20051;-90
2021/08/04 05:08:38;;;;;;;4.60;1.90;;;16.80;13.40;;;;;;5095233;27;19927;-90
2021/08/04 05:11:26;;;;;;;2.80;1.98;;;18.90;1.00;;;;;;5105736;27;20035;-89
2021/08/04 05:14:15;;;;;;;5.03;2.08;;;20.50;1.00;;;;;;5100852;27;20506;-90
2021/08/04 05:17:04;;;;;;;3.45;1.70;;;20.30;1.00;;;;;;5094034;27;20054;-90
2021/08/04 05:19:52;;;;;;;3.15;1.73;;;21.00;1.00;;;;;;5094640;27;20069;-90
2021/08/04 05:22:41;;;;;;;1.77;1.48;;;22.30;1.00;;;;;;5098333;27;20047;-90
2021/08/04 05:25:31;;;;;;;4.18;1.83;;;21.50;1.00;;;;;;5110656;27;20122;-89
2021/08/04 05:28:20;;;;;;;1.98;1.73;;;21.50;1.00;;;;;;5095288;27;20160;-90
2021/08/04 05:31:09;;;;;;;3.47;1.98;;;22.20;1.00;;;;;;5100237;27;20131;-89
2021/08/04 05:33:58;;;;;;;2.50;1.83;;;22.40;1.00;;;;;;5097873;27;20055;-90
2021/08/04 05:36:46;;;;;;;2.42;1.70;;;22.30;1.00;;;;;;5115529;27;20180;-89
2021/08/04 05:39:35;;;;;;;2.15;1.58;;;22.10;1.00;;;;;;5100764;27;20051;-89
2021/08/04 05:42:24;;;;;;;3.38;1.73;;;22.60;1.00;;;;;;5116549;27;20032;-90
2021/08/04 05:45:13;;;;;;;2.03;1.67;;;22.50;1.00;;;;;;5112563;27;20047;-88
2021/08/04 05:48:02;;;;;;;2.10;1.52;;;22.30;1.00;;;;;;5101271;27;20142;-91
2021/08/04 05:50:50;;;;;;;2.20;1.77;;;23.00;1.00;;;;;;5105766;27;20070;-90
2021/08/04 05:53:39;;;;;;;3.28;1.70;;;21.00;1.00;;;;;;5101487;27;20085;-89
2021/08/04 05:56:27;;;;;;;2.72;1.45;;;19.90;1.00;;;;;;5096782;27;20047;-90
2021/08/04 05:59:17;;;;;;;2.53;1.75;;;20.20;1.00;;;;;;5098918;27;20510;-90
2021/08/04 06:02:09;;;;;;;2.53;1.83;;;19.00;1.00;;;;;;5098499;27;20135;-89
2021/08/04 06:05:00;;;;;;;2.28;1.77;;;18.30;1.00;;;;;;5096457;27;20051;-89
2021/08/04 06:07:49;;;;;;;2.10;1.65;;;18.10;1.00;;;;;;5099075;27;20050;-88
2021/08/04 06:10:38;;;;;;;2.80;1.63;;;18.10;1.00;;;;;;5100995;27;20039;-89
2021/08/04 06:13:26;;;;;;;2.35;1.48;;;17.40;1.00;;;;;;5103001;27;20051;-89
2021/08/04 06:16:17;;;;;;;4.03;1.88;;;17.20;1.00;;;;;;5102465;27;20223;-90
2021/08/04 06:19:06;;;;;;;3.25;2.03;;;17.40;1.00;;;;;;5099953;27;20043;-89
2021/08/04 06:21:55;;;;;;;1.98;1.48;;;17.10;1.00;;;;;;5095545;27;20043;-90
2021/08/04 06:24:43;;;;;;;2.03;1.67;;;17.50;1.00;;;;;;5098567;27;20047;-90
2021/08/04 06:27:32;;;;;;;6.22;4.00;;;17.50;1.00;;;;;;5100776;27;20198;-90
2021/08/04 06:30:22;;;;;;;3.05;2.13;;;17.80;1.00;;;;;;5100561;27;20061;-90
2021/08/04 06:33:12;;;;;;;2.60;1.52;;;18.40;1.00;;;;;;5098872;27;20093;-89
2021/08/04 06:36:01;;;;;;;2.22;1.80;;;17.50;1.00;;;;;;5094628;27;20053;-89
2021/08/04 06:38:50;;;;;;;6.00;1.75;;;17.60;1.00;;;;;;5099519;27;20035;-89
2021/08/04 06:41:40;;;;;;;2.78;1.33;;;17.70;1.00;;;;;;5103712;27;20038;-89
2021/08/04 06:44:28;;;;;;;2.40;1.60;;;17.50;1.00;;;;;;5096850;27;20199;-90
2021/08/04 06:47:17;;;;;;;3.63;2.00;;;17.50;1.00;;;;;;5114675;27;20089;-90
2021/08/04 06:50:08;;;;;;;2.65;1.77;;;17.70;1.00;;;;;;5096875;27;20062;-88
2021/08/04 06:52:56;;;;;;;2.03;1.40;;;18.00;1.00;;;;;;5105499;27;20135;-89
2021/08/04 06:55:45;;;;;;;2.30;1.60;;;18.20;1.00;;;;;;5101806;27;20050;-90
2021/08/04 06:58:34;;;;;;;5.30;1.75;;;18.10;1.00;;;;;;5100632;27;20565;-90
2021/08/04 07:01:22;;;;;;;2.22;1.60;;;18.10;1.00;;;;;;5100981;27;20487;-89
2021/08/04 07:04:11;;;;;;;1.92;1.70;;;17.90;1.00;;;;;;5097496;27;20498;-89
2021/08/04 07:07:03;;;;;;;4.50;1.75;;;18.20;1.00;;;;;;5100145;27;20047;-89
2021/08/04 07:09:52;;;;;;;5.53;2.25;;;18.10;1.00;;;;;;5102826;27;20156;-88
2021/08/04 07:12:40;;;;;;;1.88;1.50;;;18.20;1.00;;;;;;5103336;27;20038;-89
2021/08/04 07:15:29;;;;;;;2.60;1.63;;;18.20;1.00;;;;;;5090802;27;20319;-89
2021/08/04 07:18:18;;;;;;;2.63;1.73;;;18.10;1.00;;;;;;5099398;27;20531;-90
2021/08/04 07:21:07;;;;;;;2.83;1.45;;;18.50;1.00;;;;;;5104559;27;20417;-89
2021/08/04 07:23:57;;;;;;;4.03;3.55;;;18.70;1.00;;;;;;5102265;27;20187;-90
2021/08/04 07:26:45;;;;;;;3.85;3.22;;;18.90;1.00;;;;;;5098116;27;20051;-90
2021/08/04 07:29:34;;;;;;;3.63;1.60;;;19.00;1.00;;;;;;5098785;27;20160;-89
2021/08/04 07:32:24;;;;;;;2.58;1.75;;;19.40;1.00;;;;;;5098525;27;20157;-88
2021/08/04 07:35:12;;;;;;;2.08;1.77;;;19.20;1.00;;;;;;5097367;27;20059;-89
2021/08/04 07:38:01;;;;;;;4.43;1.80;;;18.30;1.00;;;;;;5101711;27;20136;-90
2021/08/04 07:40:51;;;;;;;2.70;1.90;;;18.50;1.00;;;;;;5097833;27;20070;-91
2021/08/04 07:43:42;;;;;;;2.28;1.58;;;19.10;1.00;;;;;;5098492;27;20458;-90
2021/08/04 07:46:31;;;;;;;1.98;1.35;;;18.90;1.00;;;;;;5098718;27;20506;-91
2021/08/04 07:49:31;;;;;;;2.75;1.73;;;18.60;1.00;;;;;;5103501;27;20062;-88
2021/08/04 07:52:20;;;;;;;3.13;1.85;;;19.10;1.00;;;;;;5095185;27;20888;-90
2021/08/04 07:55:13;;;;;;;3.75;1.60;;;19.00;1.00;;;;;;5096677;27;20128;-90
2021/08/04 07:58:03;;;;;;;4.43;1.77;;;18.50;1.00;;;;;;5116227;27;20055;-89
2021/08/04 08:00:51;;;;;;;2.60;1.63;;;18.10;1.00;;;;;;5102428;27;20039;-89
2021/08/04 08:03:40;;;;;;;3.17;1.70;;;17.60;1.00;;;;;;5096416;27;20043;-90
2021/08/04 08:06:28;;;;;;;3.78;2.05;;;17.90;1.00;;;;;;5095855;27;20134;-88
2021/08/04 08:09:21;;;;;;;2.22;1.80;;;18.20;1.00;;;;;;5099432;27;20043;-91
2021/08/04 08:12:10;;;;;;;4.75;1.85;;;18.20;1.00;;;;;;5100342;27;20035;-90
2021/08/04 08:15:00;;;;;;;3.53;2.20;;;18.30;1.00;;;;;;5095630;27;20058;-90
2021/08/04 08:17:50;;;;;;;2.55;1.98;;;19.10;1.00;;;;;;5095558;27;20061;-90
2021/08/04 08:20:41;;;;;;;3.60;1.55;;;19.00;1.00;;;;;;5094416;27;20051;-89
2021/08/04 08:23:33;;;;;;;3.80;2.08;;;18.60;1.00;;;;;;5097217;27;20043;-91
2021/08/04 08:26:24;;;;;;;3.70;1.70;;;19.20;1.00;;;;;;5102035;27;20521;-89
2021/08/04 08:29:12;;;;;;;5.20;1.83;;;18.60;1.00;;;;;;5096118;27;20050;-90
2021/08/04 08:32:03;;;;;;;3.25;1.90;;;18.50;1.00;;;;;;5098324;27;20047;-91
2021/08/04 08:34:51;;;;;;;1.63;1.40;;;18.60;1.00;;;;;;5096285;27;20047;-90
2021/08/04 08:37:40;;;;;;;1.45;1.25;;;19.30;1.00;;;;;;5096789;27;20087;-89
2021/08/04 08:40:28;;;;;;;2.45;1.35;;;20.10;1.00;;;;;;5095744;27;20058;-90
2021/08/04 08:43:17;;;;;;;2.67;2.22;;;19.30;1.00;;;;;;5101337;27;20043;-89
2021/08/04 08:46:08;;;;;;;3.33;1.80;;;19.10;1.00;;;;;;5094545;27;20047;-90
2021/08/04 08:48:59;;;;;;;3.03;1.50;;;19.40;1.00;;;;;;5111387;27;20047;-89
2021/08/04 08:51:48;;;;;;;2.85;1.90;;;18.90;1.00;;;;;;5099774;27;20038;-89
2021/08/04 08:54:36;;;;;;;2.58;1.70;;;19.30;1.00;;;;;;5098361;27;20057;-90
2021/08/04 08:57:26;;;;;;;2.65;1.92;;;18.90;1.00;;;;;;5095631;27;20055;-90
2021/08/04 09:00:16;;;;;;;4.30;1.85;;;19.10;1.00;;;;;;5093118;27;20047;-89
2021/08/04 09:03:06;;;;;;;2.67;1.60;;;19.50;1.00;;;;;;5099472;27;20407;-89
2021/08/04 09:05:57;;;;;;;2.17;1.80;;;19.80;1.00;;;;;;5098453;27;20054;-89
2021/08/04 09:08:46;;;;;;;2.42;1.77;;;19.70;1.00;;;;;;5091855;27;20092;-89
2021/08/04 09:11:34;;;;;;;3.40;1.67;;;18.60;1.00;;;;;;5115113;27;20139;-88
2021/08/04 09:14:27;;;;;;;3.33;1.58;;;18.80;1.00;;;;;;5106205;27;20061;-88
2021/08/04 09:17:18;;;;;;;3.78;1.90;;;18.90;1.00;;;;;;5113454;27;20043;-90
2021/08/04 09:20:07;;;;;;;2.63;1.70;;;18.80;1.00;;;;;;5109454;27;20051;-88
2021/08/04 09:23:14;;;;;;;2.25;1.40;;;19.00;1.00;;;;;;5097681;27;20180;-88
2021/08/04 09:26:04;;;;;;;2.85;1.90;;;19.00;1.00;;;;;;5096466;27;20042;-88
2021/08/04 09:28:59;;;;;;;3.42;1.73;;;18.90;1.00;;;;;;5106906;27;20110;-89
2021/08/04 09:31:51;;;;;;;1.90;1.70;;;18.70;1.00;;;;;;5102912;27;20325;-89
2021/08/04 09:34:41;;;;;;;3.95;1.75;;;18.70;1.00;;;;;;5099733;27;20043;-90
2021/08/04 09:37:30;;;;;;;4.78;2.08;;;19.10;1.00;;;;;;5110924;27;20059;-89
2021/08/04 09:40:21;;;;;;;3.25;1.48;;;19.10;1.00;;;;;;5115453;27;20079;-87
2021/08/04 09:43:10;;;;;;;2.38;1.90;;;19.10;1.00;;;;;;5101307;27;20150;-89
2021/08/04 09:45:59;;;;;;;2.47;1.90;;;19.60;1.00;;;;;;5099826;27;20081;-90
2021/08/04 09:48:47;;;;;;;1.80;1.35;;;20.00;1.00;;;;;;5098649;27;20047;-88
2021/08/04 09:51:36;;;;;;;2.00;1.65;;;19.90;1.00;;;;;;5102334;27;20188;-88
2021/08/04 09:54:36;;;;;;;2.65;1.80;;;19.50;1.00;;;;;;5098507;27;20043;-87
2021/08/04 09:57:41;;;;;;;2.42;1.55;;;19.80;1.00;;;;;;5101874;27;20057;-88
2021/08/04 10:00:30;;;;;;;2.78;1.73;;;20.30;1.00;;;;;;5101104;27;20066;-88
2021/08/04 10:03:19;;;;;;;2.38;1.80;;;19.20;1.00;;;;;;5104461;27;20136;-88
2021/08/04 10:06:09;;;;;;;3.30;2.60;;;18.80;1.00;;;;;;5098033;27;20168;-88
2021/08/04 10:09:17;;;;;;;4.50;2.00;;;19.70;1.00;;;;;;5097699;27;20047;-89
2021/08/04 10:12:09;;;;;;;1.58;1.38;;;19.60;1.00;;;;;;5101992;27;20620;-90
2021/08/04 10:14:59;;;;;;;4.20;1.85;;;19.60;1.00;;;;;;5100979;27;20047;-87
2021/08/04 10:17:48;;;;;;;2.88;1.40;;;19.90;1.00;;;;;;5101305;27;20070;-87
2021/08/04 10:20:40;;;;;;;4.38;2.08;;;19.80;1.00;;;;;;5098889;27;20043;-89
2021/08/04 10:23:31;;;;;;;2.63;1.90;;;19.60;1.00;;;;;;5097646;27;20039;-88
2021/08/04 10:26:22;;;;;;;3.20;1.88;;;19.40;1.00;;;;;;5099686;27;20494;-89
2021/08/04 10:29:11;;;;;;;2.95;1.73;;;19.20;1.00;;;;;;5118617;27;20112;-90
2021/08/04 10:32:01;;;;;;;2.67;1.80;;;19.60;1.00;;;;;;5132540;27;20046;-89
2021/08/04 10:34:54;;;;;;;1.98;1.70;;;19.90;1.00;;;;;;5097908;27;20070;-88
2021/08/04 10:37:47;;;;;;;2.65;2.03;;;19.80;1.00;;;;;;5096598;27;20050;-89
2021/08/04 10:40:37;;;;;;;3.88;1.90;;;19.80;1.00;;;;;;5104790;27;20176;-88
2021/08/04 10:43:43;;;;;;;3.70;1.83;;;19.80;1.00;;;;;;5099468;27;20082;-90
2021/08/04 10:46:46;;;;;;;5.25;2.10;;;20.10;1.00;;;;;;5098992;27;20053;-90
2021/08/04 10:49:37;;;;;;;2.80;1.77;;;20.20;1.00;;;;;;5113057;27;20043;-89
2021/08/04 10:52:26;;;;;;;3.55;2.15;;;20.20;1.00;;;;;;5103427;27;20126;-88
2021/08/04 10:55:17;;;;;;;2.80;1.92;;;20.00;1.00;;;;;;5098996;27;20084;-89
2021/08/04 10:58:09;;;;;;;3.17;1.67;;;20.10;1.00;;;;;;5098698;27;20047;-89
2021/08/04 11:01:23;;;;;;;2.85;2.20;;;20.00;1.00;;;;;;5098214;27;20092;-90
2021/08/04 11:04:14;;;;;;;2.92;1.60;;;20.20;1.00;;;;;;5100122;27;20053;-89
2021/08/04 11:07:19;;;;;;;2.58;1.77;;;20.50;1.00;;;;;;5095693;27;20126;-89
2021/08/04 11:10:08;;;;;;;2.70;1.90;;;20.60;1.00;;;;;;5095595;27;20573;-89
2021/08/04 11:12:57;;;;;;;2.05;1.83;;;20.60;1.00;;;;;;5101739;27;20192;-89
2021/08/04 11:15:46;;;;;;;3.38;1.80;;;20.90;1.00;;;;;;5093433;27;20115;-89
2021/08/04 11:19:00;;;;;;;2.20;1.98;;;20.40;1.00;;;;;;5097316;27;20475;-88
2021/08/04 11:22:17;;;;;;;3.72;2.30;;;20.90;1.00;;;;;;5097005;27;20042;-88
2021/08/04 11:25:08;;;;;;;2.88;2.55;;;20.80;1.00;;;;;;5092673;27;20502;-89
2021/08/04 11:28:12;;;;;;;2.33;1.92;;;19.80;1.00;;;;;;5092147;27;20047;-89
2021/08/04 11:31:10;;;;;;;3.35;2.40;;;19.80;1.00;;;;;;5105231;27;20053;-89
2021/08/04 11:34:30;;;;;;;2.95;2.10;;;19.80;1.00;;;;;;5113368;27;20042;-90
2021/08/04 11:37:21;;;;;;;3.33;2.30;;;20.30;1.00;;;;;;5091990;27;20051;-91
2021/08/04 11:40:14;;;;;;;2.50;1.73;;;20.80;1.00;;;;;;5114338;27;20519;-91
2021/08/04 11:43:05;;;;;;;2.55;1.73;;;21.20;1.00;;;;;;5097880;27;20046;-89
2021/08/04 11:45:53;;;;;;;4.78;2.40;;;21.50;1.00;;;;;;5095891;27;20169;-90
2021/08/04 11:48:49;;;;;;;3.47;2.20;;;21.50;1.00;;;;;;5102158;27;20487;-89
2021/08/04 11:51:54;;;;;;;4.15;2.30;;;21.20;1.00;;;;;;5098609;27;20113;-90
2021/08/04 11:54:46;;;;;;;4.25;2.65;;;21.60;1.00;;;;;;5096285;27;20130;-90
2021/08/04 11:57:36;;;;;;;4.25;2.00;;;21.80;1.00;;;;;;5096606;27;20043;-92
2021/08/04 12:00:28;;;;;;;3.47;1.95;;;21.70;1.00;;;;;;5100038;27;20038;-89
2021/08/04 12:03:19;;;;;;;2.92;2.17;;;21.70;1.00;;;;;;5102268;27;20073;-89
2021/08/04 12:06:15;;;;;;;3.33;2.17;;;22.00;1.00;;;;;;5107800;27;20586;-90
2021/08/04 12:09:20;;;;;;;3.67;2.47;;;21.80;1.00;;;;;;5096336;27;20549;-90
2021/08/04 12:12:15;;;;;;;4.97;2.65;;;21.40;1.00;;;;;;5096984;27;20070;-91
2021/08/04 12:15:04;;;;;;;;;;;21.60;1.00;;;;;;5098376;27;20478;-90
2021/08/04 12:18:00;;;;;;;6.03;2.20;;;21.70;1.00;;;;;;5101152;27;19919;-91
2021/08/04 12:20:48;;;;;;;2.83;2.13;;;21.20;1.00;;;;;;5111445;27;20145;-89
2021/08/04 12:23:37;;;;;;;3.30;2.20;;;21.50;1.00;;;;;;5099880;27;20100;-90
2021/08/04 12:26:26;;;;;;;4.43;2.40;;;21.60;1.00;;;;;;5097657;27;20180;-89
2021/08/04 12:29:24;;;;;;;2.83;1.90;;;21.20;1.00;;;;;;5101980;27;20081;-89
2021/08/04 12:32:21;;;;;;;4.40;1.88;;;21.10;1.00;;;;;;5099587;27;20378;-89
2021/08/04 12:35:15;;;;;;;4.25;2.50;;;21.30;1.00;;;;;;5092018;27;20047;-91
2021/08/04 12:38:06;;;;;;;2.92;1.77;;;21.50;1.00;;;;;;5086931;27;20051;-90
2021/08/04 12:40:56;;;;;;;2.40;1.98;;;21.80;1.00;;;;;;5087419;27;20062;-91
2021/08/04 12:43:45;;;;;;;2.13;1.90;;;21.40;1.00;;;;;;5091621;27;20047;-91
2021/08/04 12:46:36;;;;;;;2.50;1.88;;;21.70;1.00;;;;;;5088008;27;20055;-90
2021/08/04 12:49:27;;;;;;;4.97;2.05;;;21.70;1.00;;;;;;5083703;27;20135;-89
2021/08/04 12:52:16;;;;;;;3.50;2.05;;;21.70;1.00;;;;;;5091606;27;20054;-89
2021/08/04 12:55:12;;;;;;;2.33;1.73;;;22.00;1.00;;;;;;5084814;27;20039;-91
2021/08/04 12:58:03;;;;;;;2.88;2.00;;;22.30;1.00;;;;;;5094847;27;20043;-91
2021/08/04 13:00:54;;;;;;;2.25;2.03;;;21.90;1.00;;;;;;5088878;27;20042;-90
2021/08/04 13:03:47;;;;;;;6.97;2.87;;;22.00;1.00;;;;;;5083266;27;20046;-89
2021/08/04 13:06:51;;;;;;;3.10;1.90;;;21.60;1.00;;;;;;5087124;27;20451;-90
2021/08/04 13:09:52;;;;;;;3.97;1.80;;;21.50;1.00;;;;;;5086308;27;20310;-90
2021/08/04 13:12:41;;;;;;;4.18;2.13;;;21.30;1.00;;;;;;5091603;27;20043;-89
2021/08/04 13:15:42;;;;;;;2.20;1.80;;;21.80;1.00;;;;;;5099047;27;20115;-91
2021/08/04 13:18:38;;;;;;;48.90;31.15;;;21.80;1.00;;;;;;5083907;27;20043;-90
2021/08/04 13:21:29;;;;;;;4.57;2.40;;;21.90;1.00;;;;;;5090544;27;20047;-90
2021/08/04 13:24:28;;;;;;;2.65;1.60;;;22.00;1.00;;;;;;5087538;27;20115;-91
2021/08/04 13:27:33;;;;;;;2.15;1.60;;;21.80;1.00;;;;;;5087828;27;20050;-90
2021/08/04 13:30:24;;;;;;;3.83;1.95;;;22.20;1.00;;;;;;5091145;27;20062;-91
2021/08/04 13:33:14;;;;;;;4.07;1.45;;;21.90;1.00;;;;;;5087090;27;20117;-89
2021/08/04 13:36:03;;;;;;;2.60;1.85;;;22.00;1.00;;;;;;5083349;27;20042;-91
2021/08/04 13:38:54;;;;;;;2.63;1.70;;;22.20;1.00;;;;;;5087213;27;20136;-91
2021/08/04 13:41:45;;;;;;;5.25;1.90;;;21.60;1.00;;;;;;5085527;27;20055;-91
2021/08/04 13:44:37;;;;;;;2.72;1.70;;;21.90;1.00;;;;;;5084818;27;20514;-92
2021/08/04 13:47:26;;;;;;;2.70;1.63;;;21.80;1.00;;;;;;5087225;27;20494;-90
2021/08/04 13:50:16;;;;;;;2.50;1.67;;;21.60;1.00;;;;;;5089290;27;20412;-89
2021/08/04 13:53:05;;;;;;;2.75;1.70;;;21.60;1.00;;;;;;5087470;27;20047;-89
2021/08/04 13:56:01;;;;;;;2.72;1.80;;;21.60;1.00;;;;;;5081720;27;20043;-91
2021/08/04 13:58:50;;;;;;;2.22;1.35;;;21.50;1.00;;;;;;5088737;27;20039;-90
2021/08/04 14:01:44;;;;;;;2.58;1.52;;;21.40;1.00;;;;;;5091774;27;20051;-89
2021/08/04 14:04:34;;;;;;;2.17;1.98;;;21.40;1.00;;;;;;5088059;27;20043;-91
2021/08/04 14:07:23;;;;;;;2.50;1.50;;;21.40;1.00;;;;;;5094135;27;20047;-89
2021/08/04 14:10:15;;;;;;;3.15;1.65;;;21.40;1.00;;;;;;5088328;27;20051;-89
2021/08/04 14:13:06;;;;;;;1.98;1.60;;;21.40;1.00;;;;;;5107664;27;20047;-89
2021/08/04 14:15:56;;;;;;;1.83;1.30;;;20.90;1.00;;;;;;5106746;27;20047;-91
2021/08/04 14:18:44;;;;;;;2.58;1.52;;;21.00;1.00;;;;;;5094682;27;20055;-90
2021/08/04 14:21:36;;;;;;;4.07;1.80;;;21.20;1.00;;;;;;5093412;27;20163;-91
2021/08/04 14:24:26;;;;;;;1.80;1.35;;;21.20;1.00;;;;;;5091938;27;20058;-91
2021/08/04 14:27:16;;;;;;;2.63;1.50;;;21.20;1.00;;;;;;5089042;27;20531;-90
2021/08/04 14:30:08;;;;;;;2.92;1.75;;;21.00;1.00;;;;;;5088407;27;20058;-90
2021/08/04 14:32:57;;;;;;;2.40;1.38;;;21.20;1.00;;;;;;5096102;27;20070;-91
2021/08/04 14:35:47;;;;;;;3.83;1.70;;;21.40;1.00;;;;;;5091878;27;20270;-90
2021/08/04 14:38:38;;;;;;;2.85;1.40;;;21.00;1.00;;;;;;5090613;27;20853;-90
2021/08/04 14:41:28;;;;;;;2.67;1.52;;;21.20;1.00;;;;;;5090964;27;20103;-91
2021/08/04 14:44:19;;;;;;;2.25;1.35;;;21.20;1.00;;;;;;5089351;27;20046;-90
2021/08/04 14:47:10;;;;;;;2.50;1.60;;;21.30;1.00;;;;;;5094100;27;20070;-88
2021/08/04 14:49:58;;;;;;;1.92;1.45;;;21.40;1.00;;;;;;5106483;27;20046;-91
2021/08/04 14:52:47;;;;;;;2.15;1.50;;;21.30;1.00;;;;;;5099168;27;20058;-91
2021/08/04 14:55:35;;;;;;;2.70;1.52;;;21.00;1.00;;;;;;5091682;27;20058;-90
2021/08/04 14:58:24;;;;;;;2.58;1.48;;;21.20;1.00;;;;;;5087340;27;20204;-91
2021/08/04 15:01:12;;;;;;;2.95;1.52;;;21.20;1.00;;;;;;5087499;27;20418;-90